Time;durP1;ratioP1;P1;durP2;ratioP2;P2;SDS_P1;SDS_P2;PMS_P1;PMS_P2;Temp;Humidity;BMP_temperature;BMP_pressure;BME280_temperature;BME280_humidity;BME280_pressure;Samples;Min_cycle;Max_cycle;Signal;HPM_P1;HPM_P2
2022/01/01 00:02:19;;;;;;;643.78;347.13;;;4.20;99.90;;;;;;5096643;28;20043;-61
2022/01/01 00:04:47;;;;;;;523.33;269.75;;;4.30;99.90;;;;;;5096581;28;20040;-62
2022/01/01 00:07:14;;;;;;;526.83;271.90;;;4.20;99.90;;;;;;5096676;28;20098;-61
2022/01/01 00:09:42;;;;;;;513.33;265.02;;;4.10;99.90;;;;;;5096429;28;20408;-61
2022/01/01 00:12:10;;;;;;;518.70;269.67;;;4.10;99.90;;;;;;5092977;28;20035;-61
2022/01/01 00:14:37;;;;;;;553.78;293.10;;;4.10;99.90;;;;;;5076100;28;20045;-61
2022/01/01 00:17:04;;;;;;;549.55;289.75;;;3.90;99.90;;;;;;5075299;28;20040;-61
2022/01/01 00:19:33;;;;;;;573.28;306.33;;;3.80;99.90;;;;;;5075371;28;20041;-62
2022/01/01 00:22:00;;;;;;;583.78;304.45;;;3.70;99.90;;;;;;5076187;28;20035;-62
2022/01/01 00:24:26;;;;;;;661.72;347.25;;;3.70;99.90;;;;;;5075960;28;20127;-62
2022/01/01 00:26:52;;;;;;;674.60;344.08;;;3.80;99.90;;;;;;5076319;28;20067;-62
2022/01/01 00:29:19;;;;;;;744.17;366.17;;;3.80;99.90;;;;;;5076036;28;20029;-61
2022/01/01 00:31:45;;;;;;;821.80;386.25;;;3.60;99.90;;;;;;5080947;28;20043;-62
2022/01/01 00:34:11;;;;;;;811.67;385.70;;;3.60;99.90;;;;;;5096040;28;20036;-62
2022/01/01 00:36:38;;;;;;;805.58;393.55;;;3.60;99.90;;;;;;5096135;28;20043;-62
2022/01/01 00:39:05;;;;;;;747.28;371.17;;;3.60;99.90;;;;;;5095571;28;20040;-62
2022/01/01 00:41:31;;;;;;;734.17;372.38;;;3.60;99.90;;;;;;5095954;28;20055;-61
2022/01/01 00:43:58;;;;;;;675.83;353.70;;;3.50;99.90;;;;;;5095801;28;20474;-62
2022/01/01 00:46:25;;;;;;;588.60;308.73;;;3.50;99.90;;;;;;5095666;28;20141;-62
2022/01/01 00:48:53;;;;;;;614.38;321.17;;;3.40;99.90;;;;;;5095801;28;20095;-61
2022/01/01 00:51:23;;;;;;;543.58;287.67;;;3.40;99.90;;;;;;5096005;28;20351;-61
2022/01/01 00:53:50;;;;;;;550.60;289.38;;;3.40;99.90;;;;;;5095726;28;20028;-62
2022/01/01 00:56:17;;;;;;;550.17;288.65;;;3.40;99.90;;;;;;5095580;28;20040;-62
2022/01/01 00:58:43;;;;;;;541.47;286.40;;;3.30;99.90;;;;;;5095649;28;20042;-61
2022/01/01 01:01:08;;;;;;;560.85;298.90;;;3.30;99.90;;;;;;5095394;28;20039;-62
2022/01/01 01:03:35;;;;;;;544.10;292.42;;;3.30;99.90;;;;;;5095615;28;20098;-61
2022/01/01 01:06:01;;;;;;;576.22;307.02;;;3.30;99.90;;;;;;5095408;28;20533;-61
2022/01/01 01:08:28;;;;;;;581.20;309.95;;;3.20;99.90;;;;;;5095117;28;20107;-62
2022/01/01 01:10:56;;;;;;;599.38;326.17;;;3.30;99.90;;;;;;5095480;28;20075;-61
2022/01/01 01:13:24;;;;;;;629.88;343.75;;;3.40;99.90;;;;;;5081404;28;20033;-62
2022/01/01 01:15:50;;;;;;;647.85;358.30;;;3.40;99.90;;;;;;5074625;28;20056;-61
2022/01/01 01:18:16;;;;;;;600.22;323.23;;;3.30;99.90;;;;;;5064020;28;20041;-61
2022/01/01 01:20:42;;;;;;;547.47;294.80;;;3.20;99.90;;;;;;5074652;28;20182;-61
2022/01/01 01:23:09;;;;;;;541.92;283.92;;;3.20;99.90;;;;;;5074815;28;20071;-62
2022/01/01 01:25:40;;;;;;;541.20;283.88;;;3.10;99.90;;;;;;5074898;28;20043;-62
2022/01/01 01:28:09;;;;;;;545.03;284.85;;;3.10;99.90;;;;;;5074940;28;20120;-62
2022/01/01 01:30:36;;;;;;;550.78;297.00;;;3.00;99.90;;;;;;5074738;28;20629;-62
2022/01/01 01:33:03;;;;;;;557.22;288.73;;;3.10;99.90;;;;;;5090720;28;20055;-62
2022/01/01 01:35:30;;;;;;;542.22;290.30;;;3.20;99.90;;;;;;5095120;28;20032;-62
2022/01/01 01:37:56;;;;;;;562.55;294.33;;;3.20;99.90;;;;;;5095094;28;20028;-61
2022/01/01 01:40:23;;;;;;;547.00;275.98;;;3.30;99.90;;;;;;5094951;28;20031;-62
2022/01/01 01:42:49;;;;;;;528.90;271.48;;;3.30;99.90;;;;;;5076301;28;20075;-62
2022/01/01 01:45:17;;;;;;;556.72;292.38;;;3.30;99.90;;;;;;5094650;28;20304;-62
2022/01/01 01:47:44;;;;;;;569.95;308.20;;;3.30;99.90;;;;;;5094900;28;20036;-62
2022/01/01 01:50:12;;;;;;;567.65;306.45;;;3.10;99.90;;;;;;5094609;28;20036;-62
2022/01/01 01:52:42;;;;;;;546.80;283.17;;;3.00;99.90;;;;;;5094781;28;20036;-62
2022/01/01 01:55:11;;;;;;;562.50;298.07;;;3.00;99.90;;;;;;5094836;28;20040;-62
2022/01/01 01:57:39;;;;;;;560.72;293.38;;;2.90;99.90;;;;;;5094490;28;20047;-62
2022/01/01 02:01:20;;;;;;;592.42;311.92;;;2.90;99.90;;;;;;5094603;28;20032;-62
2022/01/01 02:02:57;;;;;;;572.67;296.05;;;2.90;99.90;;;;;;5083476;28;20075;-62
2022/01/01 02:05:23;;;;;;;599.20;313.85;;;2.90;99.90;;;;;;5094467;28;20039;-62
2022/01/01 02:07:51;;;;;;;575.10;301.58;;;2.80;99.90;;;;;;5094387;28;20428;-62
2022/01/01 02:10:17;;;;;;;567.08;300.15;;;2.80;99.90;;;;;;5094498;28;20043;-62
2022/01/01 02:12:50;;;;;;;550.70;292.20;;;2.70;99.90;;;;;;5086022;28;20064;-62
2022/01/01 02:18:17;;;;;;;505.38;257.60;;;2.60;99.90;;;;;;5063221;28;20093;-61
2022/01/01 02:20:49;;;;;;;482.42;244.43;;;2.50;99.90;;;;;;5054111;28;20037;-62
2022/01/01 02:23:21;;;;;;;431.08;220.38;;;2.60;99.90;;;;;;5074213;28;20040;-62
2022/01/01 02:25:50;;;;;;;477.63;243.35;;;2.70;99.90;;;;;;5073946;28;20509;-61
2022/01/01 02:28:16;;;;;;;491.27;244.80;;;2.70;99.90;;;;;;5074206;28;20504;-61
2022/01/01 02:30:42;;;;;;;469.48;241.20;;;2.60;99.90;;;;;;5073944;28;20092;-62
2022/01/01 02:33:08;;;;;;;506.55;251.05;;;2.60;99.90;;;;;;5090774;28;20032;-62
2022/01/01 02:35:34;;;;;;;527.65;263.00;;;2.60;99.90;;;;;;5094424;28;20036;-62
2022/01/01 02:38:00;;;;;;;456.02;223.82;;;2.70;99.90;;;;;;5094120;28;20511;-62
2022/01/01 02:40:26;;;;;;;414.55;201.32;;;2.70;99.90;;;;;;5093858;28;20148;-61
2022/01/01 02:42:53;;;;;;;374.17;186.60;;;2.60;99.90;;;;;;5094646;28;20497;-61
2022/01/01 02:45:20;;;;;;;345.40;168.38;;;2.50;99.90;;;;;;5098021;28;20036;-62
2022/01/01 02:47:46;;;;;;;373.45;187.63;;;2.50;99.90;;;;;;5098073;28;20508;-62
2022/01/01 02:50:13;;;;;;;378.33;184.45;;;2.40;99.90;;;;;;5098168;28;20453;-62
2022/01/01 02:52:39;;;;;;;486.73;225.18;;;2.40;99.90;;;;;;5098189;28;20040;-62
2022/01/01 02:55:06;;;;;;;431.88;198.77;;;2.40;99.90;;;;;;5097925;28;20508;-62
2022/01/01 02:57:33;;;;;;;401.50;187.57;;;2.40;99.90;;;;;;5098006;28;20028;-62
2022/01/01 02:59:59;;;;;;;462.75;212.68;;;2.50;99.90;;;;;;5097737;28;20124;-62
2022/01/01 03:02:25;;;;;;;697.75;293.85;;;2.60;99.90;;;;;;5098048;28;20072;-62
2022/01/01 03:04:52;;;;;;;532.42;240.40;;;2.60;99.90;;;;;;5097997;28;20028;-62
2022/01/01 03:07:18;;;;;;;551.13;246.07;;;2.60;99.90;;;;;;5097717;28;20028;-61
2022/01/01 03:09:44;;;;;;;580.50;253.13;;;2.60;99.90;;;;;;5097670;28;20354;-61
2022/01/01 03:12:14;;;;;;;470.30;223.38;;;2.60;99.90;;;;;;5093885;28;20090;-62
2022/01/01 03:14:40;;;;;;;515.25;235.48;;;2.60;99.90;;;;;;5077235;28;20509;-62
2022/01/01 03:17:07;;;;;;;459.90;219.75;;;2.60;99.90;;;;;;5076105;28;20036;-60
2022/01/01 03:19:33;;;;;;;476.98;223.98;;;2.60;99.90;;;;;;5077253;28;20483;-62
2022/01/01 03:22:00;;;;;;;534.55;240.43;;;2.60;99.90;;;;;;5077211;28;20474;-62
2022/01/01 03:24:27;;;;;;;470.77;208.02;;;2.50;99.90;;;;;;5077239;28;20044;-62
2022/01/01 03:26:53;;;;;;;477.33;210.50;;;2.50;99.90;;;;;;5077227;28;20437;-62
2022/01/01 03:29:19;;;;;;;677.30;281.48;;;2.60;99.90;;;;;;5076910;28;20029;-62
2022/01/01 03:31:45;;;;;;;860.80;308.73;;;2.60;99.90;;;;;;5082249;28;20040;-62
2022/01/01 03:34:11;;;;;;;563.83;232.20;;;2.60;99.90;;;;;;5097422;28;20506;-62
2022/01/01 03:36:37;;;;;;;513.00;207.88;;;2.60;99.90;;;;;;5097030;28;20067;-62
2022/01/01 03:39:05;;;;;;;517.10;231.55;;;2.70;99.90;;;;;;5097089;28;20359;-62
2022/01/01 03:41:31;;;;;;;465.85;201.15;;;2.70;99.90;;;;;;5097057;28;20059;-62
2022/01/01 03:43:57;;;;;;;474.15;200.77;;;2.60;99.90;;;;;;5096811;28;20102;-62
2022/01/01 03:46:23;;;;;;;470.60;200.05;;;2.70;99.90;;;;;;5097326;28;20036;-62
2022/01/01 03:48:49;;;;;;;443.92;199.13;;;2.70;99.90;;;;;;5097026;28;20070;-61
2022/01/01 03:51:15;;;;;;;485.98;201.25;;;2.80;99.90;;;;;;5096832;28;20039;-62
2022/01/01 03:53:40;;;;;;;556.38;237.98;;;2.90;99.90;;;;;;5097009;28;20039;-62
2022/01/01 03:56:07;;;;;;;485.33;205.93;;;2.70;99.90;;;;;;5095569;28;20035;-61
2022/01/01 03:58:34;;;;;;;447.60;203.95;;;2.80;99.90;;;;;;5096780;28;20044;-62
2022/01/01 04:01:00;;;;;;;456.20;203.02;;;2.80;99.90;;;;;;5096876;28;20038;-61
2022/01/01 04:03:26;;;;;;;617.78;257.67;;;2.70;99.90;;;;;;5096891;28;20038;-61
2022/01/01 04:05:52;;;;;;;546.80;231.55;;;2.60;99.90;;;;;;5096567;28;20462;-61
2022/01/01 04:08:18;;;;;;;476.42;205.50;;;2.60;99.90;;;;;;5096672;28;20043;-62
2022/01/01 04:10:44;;;;;;;478.35;211.05;;;2.70;99.90;;;;;;5096288;28;20025;-62
2022/01/01 04:13:11;;;;;;;507.02;224.82;;;2.70;99.90;;;;;;5084418;28;20040;-62
2022/01/01 04:15:38;;;;;;;541.50;236.85;;;2.80;99.90;;;;;;5076237;28;20405;-62
2022/01/01 04:18:13;;;;;;;528.92;243.45;;;2.80;99.90;;;;;;5066884;28;20120;-61
2022/01/01 04:20:41;;;;;;;572.65;255.27;;;2.80;99.90;;;;;;5076009;28;20048;-62
2022/01/01 04:23:09;;;;;;;577.03;254.93;;;2.70;99.90;;;;;;5076282;28;20040;-61
2022/01/01 04:25:36;;;;;;;570.83;248.38;;;2.80;99.90;;;;;;5075982;28;20167;-61
2022/01/01 04:28:03;;;;;;;561.40;249.50;;;2.80;99.90;;;;;;5076029;28;20533;-61
2022/01/01 04:30:29;;;;;;;539.55;248.52;;;2.80;99.90;;;;;;5076104;28;20048;-61
2022/01/01 04:32:59;;;;;;;415.17;195.68;;;2.70;99.90;;;;;;5090816;28;20375;-62
2022/01/01 04:35:25;;;;;;;420.42;203.93;;;2.60;99.90;;;;;;5096244;28;20047;-61
2022/01/01 04:37:51;;;;;;;480.85;227.57;;;2.60;99.90;;;;;;5077864;28;20101;-61
2022/01/01 04:40:17;;;;;;;506.67;225.70;;;2.50;99.90;;;;;;5095921;28;20035;-60
2022/01/01 04:42:43;;;;;;;800.33;352.52;;;2.50;99.90;;;;;;5095844;28;20043;-60
2022/01/01 04:45:10;;;;;;;744.80;326.00;;;2.40;99.90;;;;;;5096064;28;20048;-61
2022/01/01 04:47:36;;;;;;;596.85;264.92;;;2.40;99.90;;;;;;5095690;28;20046;-60
2022/01/01 04:50:04;;;;;;;491.85;233.98;;;2.40;99.90;;;;;;5095874;28;20028;-60
2022/01/01 04:52:31;;;;;;;434.88;208.60;;;2.20;99.90;;;;;;5095732;28;20044;-60
2022/01/01 04:54:57;;;;;;;443.00;195.30;;;2.10;99.90;;;;;;5095578;28;20060;-60
2022/01/01 04:57:29;;;;;;;431.38;196.65;;;2.10;99.90;;;;;;5095512;28;20028;-60
2022/01/01 04:59:57;;;;;;;456.98;212.18;;;2.20;99.90;;;;;;5095633;28;20399;-60
2022/01/01 05:02:24;;;;;;;417.75;193.68;;;2.20;99.90;;;;;;5095542;28;20036;-60
2022/01/01 05:04:50;;;;;;;435.02;204.60;;;2.20;99.90;;;;;;5095443;28;20030;-60
2022/01/01 05:07:16;;;;;;;454.38;209.65;;;2.10;99.90;;;;;;5095246;28;20123;-60
2022/01/01 05:09:42;;;;;;;527.72;231.18;;;2.10;99.90;;;;;;5095405;28;20032;-61
2022/01/01 05:12:08;;;;;;;520.22;235.48;;;2.10;99.90;;;;;;5092093;28;20059;-62
2022/01/01 05:14:35;;;;;;;487.02;222.27;;;2.00;99.90;;;;;;5074971;28;20040;-62
2022/01/01 05:17:01;;;;;;;390.48;173.98;;;2.00;99.90;;;;;;5074644;28;20352;-62
2022/01/01 05:19:27;;;;;;;327.80;158.73;;;1.90;99.90;;;;;;5055082;28;20033;-62
2022/01/01 05:21:55;;;;;;;355.25;162.77;;;2.00;99.90;;;;;;5055094;28;20052;-62
2022/01/01 05:24:22;;;;;;;374.52;175.43;;;2.10;99.90;;;;;;5074803;28;20497;-62
2022/01/01 05:26:49;;;;;;;478.95;219.63;;;2.00;99.90;;;;;;5075015;28;20033;-62
2022/01/01 05:29:15;;;;;;;369.92;171.43;;;2.10;99.90;;;;;;5074712;28;20486;-63
2022/01/01 05:31:41;;;;;;;391.40;185.77;;;2.00;99.90;;;;;;5079407;28;20039;-62
2022/01/01 05:34:07;;;;;;;375.58;178.15;;;1.90;99.90;;;;;;5095087;28;20397;-61
2022/01/01 05:36:34;;;;;;;354.33;168.73;;;1.80;99.90;;;;;;5094867;28;20363;-62
2022/01/01 05:39:00;;;;;;;372.20;175.70;;;1.90;99.90;;;;;;5095394;28;20036;-61
2022/01/01 05:41:26;;;;;;;635.65;246.20;;;1.90;99.90;;;;;;5095004;28;20506;-61
2022/01/01 05:43:52;;;;;;;568.90;218.77;;;1.90;99.90;;;;;;5094861;28;20485;-61
2022/01/01 05:46:18;;;;;;;535.55;215.27;;;2.00;99.90;;;;;;5094672;28;20047;-61
2022/01/01 05:48:43;;;;;;;481.65;202.23;;;1.90;99.90;;;;;;5094832;28;20056;-61
2022/01/01 05:51:10;;;;;;;418.55;176.85;;;1.90;99.90;;;;;;5094760;28;20444;-61
2022/01/01 05:53:36;;;;;;;552.92;220.57;;;1.90;99.90;;;;;;5094613;28;20044;-61
2022/01/01 05:56:02;;;;;;;488.92;192.25;;;1.90;99.90;;;;;;5094670;28;20044;-61
2022/01/01 05:58:28;;;;;;;489.25;206.85;;;1.80;99.90;;;;;;5094497;28;20032;-61
2022/01/01 06:00:54;;;;;;;376.73;165.73;;;1.80;99.90;;;;;;5094642;28;20070;-61
2022/01/01 06:03:20;;;;;;;338.75;154.57;;;1.80;99.90;;;;;;5094890;28;20036;-61
2022/01/01 06:05:48;;;;;;;389.38;177.55;;;1.90;99.90;;;;;;5076366;28;20039;-61
2022/01/01 06:08:14;;;;;;;346.67;158.23;;;1.80;99.90;;;;;;5093221;28;20043;-61
2022/01/01 06:10:40;;;;;;;340.02;154.45;;;1.80;99.90;;;;;;5094560;28;20495;-62
2022/01/01 06:13:08;;;;;;;357.02;156.82;;;1.80;99.90;;;;;;5082893;28;20115;-62
2022/01/01 06:15:35;;;;;;;388.73;161.52;;;1.80;99.90;;;;;;5074124;28;20044;-61
2022/01/01 06:18:01;;;;;;;547.90;210.52;;;1.80;99.90;;;;;;5064703;28;20132;-62
2022/01/01 06:20:27;;;;;;;375.90;164.95;;;1.80;99.90;;;;;;5074019;28;20558;-62
2022/01/01 06:22:53;;;;;;;353.40;155.38;;;1.70;99.90;;;;;;5074186;28;20114;-61
2022/01/01 06:25:19;;;;;;;354.45;155.65;;;1.70;99.90;;;;;;5074252;28;20040;-62
2022/01/01 06:27:45;;;;;;;362.67;162.57;;;1.70;99.90;;;;;;5074230;28;20060;-62
2022/01/01 06:30:11;;;;;;;366.33;160.85;;;1.60;99.90;;;;;;5074163;28;20032;-61
2022/01/01 06:32:37;;;;;;;338.55;151.13;;;1.60;99.90;;;;;;5086518;28;20436;-61
2022/01/01 06:35:04;;;;;;;322.35;141.48;;;1.60;99.90;;;;;;5094217;28;20036;-61
2022/01/01 06:37:30;;;;;;;363.77;150.98;;;1.70;99.90;;;;;;5094321;28;20036;-61
2022/01/01 06:39:56;;;;;;;534.65;207.02;;;1.70;99.90;;;;;;5094173;28;20032;-61
2022/01/01 06:42:22;;;;;;;508.63;198.45;;;1.70;99.90;;;;;;5093999;28;20512;-61
2022/01/01 06:44:48;;;;;;;495.58;194.10;;;1.70;99.90;;;;;;5093920;28;20028;-61
2022/01/01 06:47:14;;;;;;;347.08;155.07;;;1.60;99.90;;;;;;5094146;28;20032;-61
2022/01/01 06:49:40;;;;;;;335.35;153.02;;;1.60;99.90;;;;;;5094051;28;20036;-61
2022/01/01 06:52:06;;;;;;;340.00;151.05;;;1.70;99.90;;;;;;5094125;28;20378;-61
2022/01/01 06:54:32;;;;;;;319.60;143.68;;;1.70;99.90;;;;;;5093981;28;20401;-61
2022/01/01 06:56:58;;;;;;;323.13;147.93;;;1.80;99.90;;;;;;5093974;28;20036;-61
2022/01/01 06:59:24;;;;;;;282.67;134.95;;;1.80;99.90;;;;;;5094057;28;20549;-61
2022/01/01 07:01:50;;;;;;;263.58;122.88;;;1.80;99.90;;;;;;5093974;28;20063;-61
2022/01/01 07:04:15;;;;;;;217.75;109.95;;;1.80;99.90;;;;;;5093830;28;20389;-61
2022/01/01 07:06:41;;;;;;;224.10;114.45;;;1.90;99.90;;;;;;5094107;28;20059;-61
2022/01/01 07:09:07;;;;;;;233.73;115.45;;;1.90;99.90;;;;;;5093811;28;20031;-61
2022/01/01 07:11:33;;;;;;;321.50;146.95;;;1.80;99.90;;;;;;5093816;28;20082;-61
2022/01/01 07:13:59;;;;;;;354.38;150.18;;;1.80;99.90;;;;;;5074776;28;20071;-61
2022/01/01 07:16:26;;;;;;;350.75;153.57;;;1.80;99.90;;;;;;5073801;28;20037;-61
2022/01/01 07:18:52;;;;;;;349.55;160.70;;;1.80;99.90;;;;;;5057666;28;20045;-61
2022/01/01 07:21:18;;;;;;;315.27;147.98;;;1.90;99.90;;;;;;5073658;28;20463;-61
2022/01/01 07:23:44;;;;;;;392.77;170.20;;;2.00;99.90;;;;;;5073655;28;20032;-61
2022/01/01 07:26:10;;;;;;;490.60;202.13;;;2.00;99.90;;;;;;5073632;28;20040;-61
2022/01/01 07:28:36;;;;;;;362.65;166.48;;;2.00;99.90;;;;;;5074193;28;20077;-62
2022/01/01 07:31:02;;;;;;;444.02;184.52;;;2.10;99.90;;;;;;5077000;28;20175;-61
2022/01/01 07:33:28;;;;;;;362.83;163.40;;;2.10;99.90;;;;;;5096483;28;20067;-61
2022/01/01 07:35:55;;;;;;;355.63;164.02;;;2.10;99.90;;;;;;5097558;28;20520;-61
2022/01/01 07:38:22;;;;;;;330.45;154.23;;;2.20;99.90;;;;;;5097162;28;20305;-61
2022/01/01 07:40:49;;;;;;;349.80;165.68;;;2.30;99.90;;;;;;5097362;28;20067;-62
2022/01/01 07:43:17;;;;;;;327.20;156.60;;;2.30;99.90;;;;;;5097054;28;20024;-61
2022/01/01 07:45:45;;;;;;;363.50;168.80;;;2.40;99.90;;;;;;5096662;28;20048;-61
2022/01/01 07:48:11;;;;;;;346.02;162.07;;;2.50;99.90;;;;;;5097066;28;20115;-61
2022/01/01 07:50:38;;;;;;;324.33;157.65;;;2.60;99.90;;;;;;5097076;28;20076;-61
2022/01/01 07:53:05;;;;;;;393.48;172.77;;;2.70;99.90;;;;;;5096583;28;20046;-61
2022/01/01 07:55:32;;;;;;;329.35;154.45;;;2.70;99.90;;;;;;5096991;28;20441;-61
2022/01/01 07:57:58;;;;;;;483.92;184.95;;;2.80;99.90;;;;;;5096849;28;20040;-61
2022/01/01 08:00:24;;;;;;;363.05;166.93;;;2.60;99.90;;;;;;5096814;28;20044;-60
2022/01/01 08:02:50;;;;;;;337.15;155.23;;;2.70;99.90;;;;;;5096908;28;20068;-61
2022/01/01 08:05:16;;;;;;;337.08;162.23;;;2.70;99.90;;;;;;5096605;28;20032;-61
2022/01/01 08:07:43;;;;;;;355.42;162.50;;;2.80;99.90;;;;;;5096615;28;20032;-61
2022/01/01 08:10:10;;;;;;;309.60;152.80;;;2.80;99.90;;;;;;5096674;28;20042;-61
2022/01/01 08:12:36;;;;;;;309.23;152.25;;;2.90;99.90;;;;;;5089378;28;20047;-61
2022/01/01 08:15:04;;;;;;;300.45;151.70;;;3.10;99.90;;;;;;5075922;28;20414;-61
2022/01/01 08:17:30;;;;;;;326.90;158.60;;;3.10;99.90;;;;;;5071756;28;20391;-61
2022/01/01 08:19:57;;;;;;;332.75;161.52;;;3.20;99.90;;;;;;5055980;28;20037;-61
2022/01/01 08:22:24;;;;;;;290.52;145.38;;;3.10;99.90;;;;;;5056405;28;20352;-60
2022/01/01 08:24:50;;;;;;;293.60;148.80;;;3.10;99.90;;;;;;5076101;28;20098;-61
2022/01/01 08:27:16;;;;;;;296.33;148.52;;;3.20;99.90;;;;;;5075836;28;20448;-61
2022/01/01 08:29:42;;;;;;;299.48;147.50;;;3.20;99.90;;;;;;5076000;28;20036;-61
2022/01/01 08:32:08;;;;;;;274.35;141.98;;;3.20;99.90;;;;;;5084276;28;20397;-61
2022/01/01 08:34:35;;;;;;;271.13;142.55;;;3.40;99.90;;;;;;5095967;28;20043;-61
2022/01/01 08:37:00;;;;;;;280.50;143.90;;;3.60;99.90;;;;;;5095766;28;20036;-61
2022/01/01 08:39:26;;;;;;;257.55;139.18;;;3.60;99.90;;;;;;5096115;28;20044;-61
2022/01/01 08:41:52;;;;;;;274.83;148.95;;;3.70;99.90;;;;;;5095377;28;20036;-61
2022/01/01 08:44:18;;;;;;;273.42;142.27;;;3.80;99.90;;;;;;5095699;28;20082;-62
2022/01/01 08:46:44;;;;;;;250.77;137.25;;;4.00;99.90;;;;;;5095903;28;20036;-61
2022/01/01 08:49:11;;;;;;;259.67;139.57;;;4.20;99.90;;;;;;5095755;28;20059;-61
2022/01/01 08:51:38;;;;;;;252.13;134.55;;;4.20;99.90;;;;;;5095847;28;20046;-61
2022/01/01 08:54:04;;;;;;;247.15;135.98;;;4.30;99.90;;;;;;5095709;28;20029;-61
2022/01/01 08:56:30;;;;;;;252.43;132.85;;;4.40;99.90;;;;;;5095465;28;20539;-61
2022/01/01 08:58:56;;;;;;;266.13;142.95;;;4.50;99.90;;;;;;5095606;28;20044;-61
2022/01/01 09:01:22;;;;;;;282.38;158.18;;;4.70;99.90;;;;;;5095635;28;20031;-61
2022/01/01 09:03:48;;;;;;;327.80;184.25;;;4.80;99.90;;;;;;5095228;28;20532;-61
2022/01/01 09:06:15;;;;;;;295.00;167.50;;;4.90;99.90;;;;;;5095539;28;20036;-62
2022/01/01 09:08:42;;;;;;;295.00;160.77;;;5.10;99.90;;;;;;5095504;28;20032;-61
2022/01/01 09:11:10;;;;;;;268.08;150.57;;;5.20;99.90;;;;;;5095330;28;20082;-61
2022/01/01 09:13:41;;;;;;;267.00;145.18;;;5.30;99.90;;;;;;5079740;28;20434;-62
2022/01/01 09:16:08;;;;;;;267.60;143.10;;;5.40;99.90;;;;;;5074955;28;20059;-61
2022/01/01 09:18:34;;;;;;;279.30;147.45;;;5.50;99.90;;;;;;5061626;28;20044;-61
2022/01/01 09:21:00;;;;;;;271.33;148.35;;;5.60;99.90;;;;;;5074905;28;20501;-61
2022/01/01 09:23:26;;;;;;;277.90;149.98;;;5.70;99.90;;;;;;5074965;28;20028;-61
2022/01/01 09:25:52;;;;;;;294.92;159.63;;;5.90;99.90;;;;;;5074840;28;20100;-61
2022/01/01 09:28:18;;;;;;;305.23;158.63;;;6.10;99.90;;;;;;5075085;28;20060;-62
2022/01/01 09:30:44;;;;;;;306.08;161.30;;;6.20;99.90;;;;;;5074875;28;20033;-62
2022/01/01 09:33:12;;;;;;;282.48;152.05;;;6.20;99.90;;;;;;5091806;28;20036;-62
2022/01/01 09:35:38;;;;;;;287.80;154.07;;;6.50;99.90;;;;;;5095089;28;20492;-62
2022/01/01 09:38:04;;;;;;;287.92;155.05;;;6.80;99.90;;;;;;5094986;28;20055;-63
2022/01/01 09:40:31;;;;;;;294.75;160.18;;;7.20;99.90;;;;;;5094674;28;20036;-64
2022/01/01 09:42:58;;;;;;;286.92;155.25;;;7.80;99.90;;;;;;5094989;28;20072;-65
2022/01/01 09:45:25;;;;;;;278.30;152.27;;;9.30;99.90;;;;;;5094699;28;20024;-65
2022/01/01 09:47:51;;;;;;;239.65;134.35;;;10.20;99.90;;;;;;5094855;28;20047;-65
2022/01/01 09:50:17;;;;;;;238.40;138.13;;;11.00;99.90;;;;;;5094760;28;20430;-65
2022/01/01 09:52:43;;;;;;;233.38;134.73;;;11.70;99.90;;;;;;5093772;28;20470;-65
2022/01/01 09:55:10;;;;;;;236.20;132.70;;;12.40;99.90;;;;;;5094756;28;20126;-65
2022/01/01 09:57:36;;;;;;;233.57;131.07;;;12.90;99.90;;;;;;5094621;28;20089;-65
2022/01/01 10:00:05;;;;;;;238.23;136.93;;;13.70;99.90;;;;;;5094367;28;20074;-65
2022/01/01 10:02:32;;;;;;;254.32;143.73;;;14.30;99.90;;;;;;5094640;28;20043;-65
2022/01/01 10:05:04;;;;;;;254.55;144.30;;;14.70;99.90;;;;;;5094436;28;20099;-65
2022/01/01 10:07:30;;;;;;;260.45;151.45;;;16.10;98.70;;;;;;5094530;28;20040;-64
2022/01/01 10:09:56;;;;;;;275.50;159.57;;;16.10;98.00;;;;;;5094700;28;20036;-64
2022/01/01 10:12:41;;;;;;;274.10;162.77;;;16.50;96.60;;;;;;5089124;28;20406;-64
2022/01/01 10:15:08;;;;;;;283.90;162.07;;;17.10;97.30;;;;;;5074080;28;20059;-64
2022/01/01 10:17:34;;;;;;;287.75;170.90;;;17.50;95.70;;;;;;5069065;28;20035;-64
2022/01/01 10:20:01;;;;;;;276.02;167.23;;;18.10;92.70;;;;;;5054190;28;20052;-64
2022/01/01 10:22:28;;;;;;;286.95;173.85;;;17.70;93.20;;;;;;5073670;28;20040;-64
2022/01/01 10:28:05;;;;;;;328.83;195.05;;;18.00;93.10;;;;;;5074086;28;20035;-64
2022/01/01 10:30:34;;;;;;;243.35;147.35;;;18.00;92.60;;;;;;5074052;28;20194;-63
2022/01/01 10:33:00;;;;;;;291.30;184.27;;;17.90;93.30;;;;;;5089941;28;20036;-64
2022/01/01 10:35:28;;;;;;;231.63;141.02;;;17.80;93.60;;;;;;5094269;28;20043;-64
2022/01/01 10:37:54;;;;;;;229.68;137.50;;;18.20;94.40;;;;;;5094313;28;20036;-63
2022/01/01 10:40:27;;;;;;;176.23;107.57;;;18.90;91.30;;;;;;5093023;28;20054;-63
2022/01/01 10:42:53;;;;;;;163.38;101.82;;;19.20;90.40;;;;;;5094232;28;20028;-63
2022/01/01 10:45:37;;;;;;;167.55;105.03;;;19.60;87.90;;;;;;5094048;28;20032;-63
2022/01/01 10:48:17;;;;;;;157.25;89.38;;;19.90;86.50;;;;;;5094045;28;20399;-63
2022/01/01 10:50:45;;;;;;;129.65;77.30;;;20.40;77.00;;;;;;5093887;28;20115;-63
2022/01/01 10:53:16;;;;;;;147.25;87.78;;;19.80;82.60;;;;;;5094032;28;20040;-63
2022/01/01 10:55:45;;;;;;;131.82;80.75;;;20.00;82.70;;;;;;5094187;28;20040;-63
2022/01/01 10:58:23;;;;;;;126.45;76.07;;;20.40;77.00;;;;;;5094118;28;20047;-63
2022/01/01 11:00:50;;;;;;;137.30;88.57;;;20.40;81.60;;;;;;5094079;28;20047;-63
2022/01/01 11:03:18;;;;;;;158.77;102.60;;;20.40;83.00;;;;;;5094082;28;20131;-63
2022/01/01 11:05:46;;;;;;;160.52;102.15;;;20.80;81.10;;;;;;5097151;28;20466;-62
2022/01/01 11:08:13;;;;;;;163.07;107.28;;;20.50;80.40;;;;;;5097846;28;20036;-63
2022/01/01 11:10:41;;;;;;;168.27;105.50;;;19.00;90.50;;;;;;5097882;28;20082;-63
2022/01/01 11:13:08;;;;;;;167.00;103.93;;;18.80;92.40;;;;;;5086264;28;20040;-63
2022/01/01 11:15:34;;;;;;;162.45;103.68;;;18.40;93.70;;;;;;5077174;28;20048;-63
2022/01/01 11:18:02;;;;;;;148.63;94.47;;;18.40;92.70;;;;;;5068684;28;20435;-63
2022/01/01 11:20:33;;;;;;;156.23;100.15;;;18.20;93.00;;;;;;5077067;28;20120;-62
2022/01/01 11:23:12;;;;;;;148.02;93.70;;;19.10;93.10;;;;;;5077271;28;20032;-64
2022/01/01 11:25:39;;;;;;;146.55;92.20;;;19.40;91.10;;;;;;5077252;28;20033;-64
2022/01/01 11:28:11;;;;;;;156.57;99.07;;;19.30;90.10;;;;;;5077102;28;20025;-63
2022/01/01 11:30:47;;;;;;;141.52;88.90;;;18.70;92.10;;;;;;5077302;28;20040;-63
2022/01/01 11:33:17;;;;;;;142.40;89.10;;;19.50;90.50;;;;;;5094646;28;20068;-63
2022/01/01 11:36:03;;;;;;;150.23;93.78;;;18.90;91.10;;;;;;5097339;28;20039;-63
2022/01/01 11:38:35;;;;;;;160.85;96.57;;;18.80;92.70;;;;;;5097273;28;20047;-63
2022/01/01 11:41:09;;;;;;;168.30;96.07;;;19.20;92.20;;;;;;5096916;28;20036;-63
2022/01/01 11:43:40;;;;;;;154.82;92.93;;;19.30;90.20;;;;;;5097160;28;20488;-63
2022/01/01 11:46:26;;;;;;;150.60;91.78;;;19.50;90.10;;;;;;5097003;28;20032;-63
2022/01/01 11:48:57;;;;;;;165.60;92.28;;;19.30;88.60;;;;;;5097071;28;20106;-64
2022/01/01 11:51:50;;;;;;;157.55;92.22;;;19.70;89.30;;;;;;5097076;28;20123;-63
2022/01/01 11:54:32;;;;;;;159.90;91.40;;;20.30;84.20;;;;;;5096913;28;20036;-64
2022/01/01 11:57:05;;;;;;;152.52;87.53;;;20.60;82.80;;;;;;5078749;28;20111;-64
2022/01/01 11:59:37;;;;;;;152.70;85.90;;;19.70;85.90;;;;;;5096701;28;20494;-63
2022/01/01 12:02:25;;;;;;;156.73;86.13;;;20.00;86.90;;;;;;5096740;28;20357;-63
2022/01/01 12:05:05;;;;;;;155.23;86.32;;;20.60;81.60;;;;;;5082589;28;20497;-64
2022/01/01 12:07:40;;;;;;;166.15;87.95;;;20.10;83.40;;;;;;5096776;28;20034;-64
2022/01/01 12:10:09;;;;;;;177.77;92.50;;;20.50;85.10;;;;;;5096400;28;20482;-64
2022/01/01 12:12:48;;;;;;;156.23;88.65;;;20.30;81.00;;;;;;5089581;28;20020;-63
2022/01/01 12:15:21;;;;;;;183.73;94.95;;;20.00;85.90;;;;;;5074998;28;20045;-64
2022/01/01 12:18:01;;;;;;;188.85;98.30;;;20.10;85.30;;;;;;5067902;28;20140;-63
2022/01/01 12:20:37;;;;;;;189.02;96.45;;;19.80;89.60;;;;;;5055040;28;20037;-63
2022/01/01 12:23:11;;;;;;;178.68;94.35;;;20.20;85.30;;;;;;5075088;28;20158;-63
2022/01/01 12:25:39;;;;;;;176.48;93.30;;;20.00;89.30;;;;;;5075066;28;20032;-63